Time;durP1;ratioP1;P1;durP2;ratioP2;P2;SDS_P1;SDS_P2;PMS_P1;PMS_P2;Temp;Humidity;BMP_temperature;BMP_pressure;BME280_temperature;BME280_humidity;BME280_pressure;Samples;Min_cycle;Max_cycle;Signal;HPM_P1;HPM_P2
2023/09/12 00:00:09;;;;;;;18.25;14.43;;;22.10;84.20;;;;;;5113388;28;20059;-42
2023/09/12 00:02:35;;;;;;;17.63;14.52;;;22.10;84.30;;;;;;5113203;28;20034;-37
2023/09/12 00:05:01;;;;;;;17.00;14.18;;;22.10;84.20;;;;;;5095073;28;20099;-42
2023/09/12 00:07:27;;;;;;;17.35;14.38;;;22.10;84.10;;;;;;5112940;28;20023;-38
2023/09/12 00:09:52;;;;;;;16.92;14.57;;;22.00;84.10;;;;;;5112931;28;20028;-42
2023/09/12 00:12:22;;;;;;;21.35;15.10;;;22.00;84.20;;;;;;5112830;28;20023;-40
2023/09/12 00:14:48;;;;;;;17.38;14.88;;;22.00;84.20;;;;;;5113005;28;20103;-39
2023/09/12 00:17:13;;;;;;;15.88;13.90;;;22.00;84.20;;;;;;5112685;28;20453;-42
2023/09/12 00:19:39;;;;;;;15.70;13.90;;;22.00;84.50;;;;;;5113061;28;20392;-40
2023/09/12 00:22:05;;;;;;;18.60;15.05;;;21.90;84.70;;;;;;5113110;28;20030;-38
2023/09/12 00:24:30;;;;;;;20.40;15.35;;;21.90;84.80;;;;;;5094253;28;20104;-42
2023/09/12 00:26:56;;;;;;;19.65;15.93;;;21.90;84.70;;;;;;5093971;28;20039;-39
2023/09/12 00:29:21;;;;;;;17.23;15.43;;;21.90;84.90;;;;;;5112089;28;20024;-41
2023/09/12 00:31:47;;;;;;;19.58;15.20;;;21.80;85.10;;;;;;5112910;28;20101;-42
2023/09/12 00:34:21;;;;;;;20.02;15.88;;;21.80;85.20;;;;;;5112548;28;20011;-40
2023/09/12 00:36:47;;;;;;;19.70;15.00;;;21.80;85.30;;;;;;5094013;28;20028;-41
2023/09/12 00:39:12;;;;;;;18.27;15.20;;;21.80;85.40;;;;;;5112667;28;20034;-44
2023/09/12 00:41:38;;;;;;;18.88;14.75;;;21.80;85.50;;;;;;5112566;28;20035;-38
2023/09/12 00:44:04;;;;;;;16.80;14.15;;;21.80;85.60;;;;;;5112707;28;20051;-42
2023/09/12 00:46:30;;;;;;;20.50;14.80;;;21.80;85.60;;;;;;5111975;28;20059;-44
2023/09/12 00:48:57;;;;;;;16.52;14.32;;;21.80;85.50;;;;;;5112320;28;20047;-41
2023/09/12 00:51:25;;;;;;;17.85;14.57;;;21.80;85.50;;;;;;5112610;28;20492;-42
2023/09/12 00:53:51;;;;;;;19.50;15.15;;;21.80;85.50;;;;;;5112025;28;20023;-38
2023/09/12 00:56:17;;;;;;;17.55;14.65;;;21.70;85.40;;;;;;5112015;28;20307;-43
2023/09/12 00:58:43;;;;;;;19.90;15.93;;;21.80;85.40;;;;;;5112106;28;20127;-42
2023/09/12 01:01:08;;;;;;;18.35;14.90;;;21.70;85.20;;;;;;5111773;28;20023;-43
2023/09/12 01:03:35;;;;;;;19.55;15.25;;;21.70;85.10;;;;;;5111921;28;20023;-35
2023/09/12 01:06:02;;;;;;;20.23;15.43;;;21.70;85.10;;;;;;5111934;28;20028;-34
2023/09/12 01:08:28;;;;;;;21.33;15.95;;;21.70;85.10;;;;;;5112063;28;20073;-34
2023/09/12 01:10:56;;;;;;;19.15;15.52;;;21.70;85.10;;;;;;5112238;28;20031;-34
2023/09/12 01:13:23;;;;;;;17.45;14.73;;;21.70;85.10;;;;;;5112175;28;20083;-35
2023/09/12 01:15:49;;;;;;;19.20;15.38;;;21.70;85.00;;;;;;5111991;28;20020;-34
2023/09/12 01:18:14;;;;;;;17.65;14.10;;;21.60;85.10;;;;;;5112114;28;20103;-34
2023/09/12 01:20:51;;;;;;;18.35;15.00;;;21.60;85.10;;;;;;5112430;28;20032;-34
2023/09/12 01:23:32;;;;;;;20.65;15.60;;;21.50;85.10;;;;;;5112222;28;20026;-35
2023/09/12 01:26:06;;;;;;;20.23;15.90;;;21.50;85.90;;;;;;5093734;28;20027;-34
2023/09/12 01:28:37;;;;;;;19.67;16.00;;;21.40;85.40;;;;;;5111840;28;20558;-35
2023/09/12 01:31:03;;;;;;;20.45;15.32;;;21.40;85.60;;;;;;5093586;28;20024;-34
2023/09/12 01:33:29;;;;;;;20.42;15.43;;;21.30;85.60;;;;;;5111923;28;20020;-35
2023/09/12 01:35:54;;;;;;;18.60;14.90;;;21.40;85.80;;;;;;5111776;28;20024;-35
2023/09/12 01:38:21;;;;;;;19.83;15.10;;;21.40;85.80;;;;;;5111959;28;20085;-39
2023/09/12 01:40:50;;;;;;;20.50;15.02;;;21.30;85.70;;;;;;5112912;28;20026;-34
2023/09/12 01:43:18;;;;;;;19.25;15.13;;;21.30;86.30;;;;;;5116053;28;20524;-34
2023/09/12 01:45:47;;;;;;;17.75;14.55;;;21.30;85.80;;;;;;5115991;28;20433;-37
2023/09/12 01:48:16;;;;;;;18.85;15.45;;;21.20;85.80;;;;;;5115891;28;20031;-35
2023/09/12 01:50:42;;;;;;;17.70;14.52;;;21.20;85.90;;;;;;5116253;28;20076;-35
2023/09/12 01:53:08;;;;;;;17.30;14.50;;;21.20;86.00;;;;;;5115728;28;20016;-34
2023/09/12 01:55:35;;;;;;;17.40;14.38;;;21.10;86.10;;;;;;5115782;28;20023;-36
2023/09/12 01:58:01;;;;;;;16.20;14.00;;;21.10;86.10;;;;;;5116032;28;20534;-37
2023/09/12 02:00:27;;;;;;;17.90;14.35;;;21.10;86.10;;;;;;5115630;28;20080;-33
2023/09/12 02:02:53;;;;;;;18.50;14.23;;;21.10;86.20;;;;;;5097259;28;20555;-35
2023/09/12 02:05:21;;;;;;;17.17;14.43;;;21.10;86.20;;;;;;5115763;28;20393;-35
2023/09/12 02:07:47;;;;;;;17.60;14.65;;;21.10;86.30;;;;;;5115436;28;20034;-35
2023/09/12 02:10:13;;;;;;;16.80;14.23;;;21.10;86.30;;;;;;5115733;28;20080;-34
2023/09/12 02:12:39;;;;;;;18.50;14.98;;;21.00;86.20;;;;;;5115710;28;20455;-34
2023/09/12 02:15:06;;;;;;;16.83;14.43;;;21.00;86.10;;;;;;5115358;28;20019;-35
2023/09/12 02:17:31;;;;;;;18.17;14.43;;;20.90;86.00;;;;;;5115093;28;20034;-34
2023/09/12 02:19:57;;;;;;;18.15;14.50;;;20.90;86.10;;;;;;5115300;28;20032;-34
2023/09/12 02:22:23;;;;;;;17.88;14.50;;;20.90;86.10;;;;;;5096850;28;20020;-38
2023/09/12 02:24:49;;;;;;;15.55;13.73;;;20.90;86.10;;;;;;5115207;28;20019;-34
2023/09/12 02:27:15;;;;;;;18.98;13.90;;;20.80;86.20;;;;;;5114856;28;20048;-37
2023/09/12 02:29:41;;;;;;;18.08;14.23;;;20.80;86.30;;;;;;5115018;28;20032;-34
2023/09/12 02:32:07;;;;;;;16.38;14.48;;;20.80;86.40;;;;;;5115252;28;20028;-33
2023/09/12 02:34:33;;;;;;;15.82;13.93;;;20.80;86.40;;;;;;5115020;28;20093;-35
2023/09/12 02:36:59;;;;;;;17.65;13.98;;;20.80;86.40;;;;;;5114770;28;20047;-35
2023/09/12 02:39:24;;;;;;;16.90;14.20;;;20.70;86.40;;;;;;5096726;28;20066;-35
2023/09/12 02:41:50;;;;;;;16.40;13.80;;;20.80;86.60;;;;;;5115028;28;20459;-33
2023/09/12 02:44:16;;;;;;;17.58;15.00;;;20.80;86.70;;;;;;5114762;28;20058;-34
2023/09/12 02:46:41;;;;;;;18.33;14.60;;;20.80;86.80;;;;;;5114989;28;20492;-34
2023/09/12 02:49:07;;;;;;;17.98;14.80;;;20.80;86.80;;;;;;5114771;28;20049;-33
2023/09/12 02:51:33;;;;;;;19.23;15.70;;;20.70;86.60;;;;;;5114233;28;20038;-34
2023/09/12 02:53:58;;;;;;;21.23;15.40;;;20.70;86.50;;;;;;5114461;28;20024;-34
2023/09/12 02:56:24;;;;;;;20.77;15.30;;;20.70;86.50;;;;;;5114515;28;20096;-36
2023/09/12 02:58:49;;;;;;;20.67;15.88;;;20.60;86.50;;;;;;5114563;28;20023;-33
2023/09/12 03:01:19;;;;;;;19.20;15.65;;;20.60;86.60;;;;;;5114378;28;20027;-34
2023/09/12 03:03:49;;;;;;;18.20;15.02;;;20.60;86.90;;;;;;5114742;28;20419;-36
2023/09/12 03:06:15;;;;;;;17.95;14.68;;;20.60;86.90;;;;;;5114352;28;20499;-34
2023/09/12 03:08:41;;;;;;;17.52;15.02;;;20.60;87.00;;;;;;5114299;28;20032;-34
2023/09/12 03:11:07;;;;;;;15.77;13.38;;;20.60;87.00;;;;;;5114336;28;20026;-33
2023/09/12 03:13:41;;;;;;;15.57;13.38;;;20.60;87.60;;;;;;5114468;28;20476;-37
2023/09/12 03:16:14;;;;;;;16.60;13.40;;;20.60;86.90;;;;;;5114324;28;20031;-34
2023/09/12 03:18:40;;;;;;;18.50;14.15;;;20.60;87.00;;;;;;5114086;28;20031;-34
2023/09/12 03:21:05;;;;;;;17.75;14.30;;;20.60;86.90;;;;;;5114090;28;20366;-34
2023/09/12 03:23:31;;;;;;;17.33;14.32;;;20.60;86.80;;;;;;5114031;28;20057;-35
2023/09/12 03:26:04;;;;;;;15.27;13.48;;;20.50;86.90;;;;;;5114107;28;20319;-34
2023/09/12 03:28:30;;;;;;;;;;;20.50;86.90;;;;;;5114199;28;20066;-33
2023/09/12 03:31:13;;;;;;;15.15;12.75;;;20.50;86.80;;;;;;5113988;28;19907;-34
2023/09/12 03:33:40;;;;;;;15.57;12.90;;;20.50;86.90;;;;;;5114085;28;20027;-33
2023/09/12 03:36:07;;;;;;;16.63;13.57;;;20.50;86.90;;;;;;5113777;28;20030;-35
2023/09/12 03:38:33;;;;;;;15.32;13.27;;;20.50;87.00;;;;;;5114183;28;20495;-34
2023/09/12 03:40:59;;;;;;;16.05;13.02;;;20.50;87.00;;;;;;5114021;28;20381;-34
2023/09/12 03:43:25;;;;;;;17.70;13.50;;;20.50;86.90;;;;;;5113545;28;20035;-35
2023/09/12 03:45:50;;;;;;;16.17;13.15;;;20.50;86.80;;;;;;5095131;28;20039;-34
2023/09/12 03:48:16;;;;;;;15.63;13.45;;;20.50;86.80;;;;;;5113586;28;20084;-35
2023/09/12 03:50:42;;;;;;;18.50;12.98;;;20.50;86.80;;;;;;5113552;28;20476;-33
2023/09/12 03:53:08;;;;;;;16.33;12.90;;;20.50;86.80;;;;;;5113666;28;20027;-34
2023/09/12 03:55:33;;;;;;;14.52;12.90;;;20.50;86.80;;;;;;5113452;28;20527;-34
2023/09/12 03:57:59;;;;;;;16.10;13.25;;;20.50;86.80;;;;;;5113507;28;20055;-34
2023/09/12 04:00:24;;;;;;;17.15;13.38;;;20.60;86.80;;;;;;5113301;28;20099;-34
2023/09/12 04:02:50;;;;;;;18.83;13.73;;;20.60;86.80;;;;;;5113071;28;20028;-35
2023/09/12 04:05:16;;;;;;;15.60;13.38;;;20.60;86.80;;;;;;5113216;28;20077;-35
2023/09/12 04:07:41;;;;;;;16.13;13.52;;;20.60;86.80;;;;;;5113175;28;20063;-34
2023/09/12 04:10:08;;;;;;;17.55;13.32;;;20.60;86.70;;;;;;5113476;28;20058;-34
2023/09/12 04:12:33;;;;;;;15.20;12.90;;;20.60;86.70;;;;;;5113077;28;20016;-32
2023/09/12 04:14:59;;;;;;;19.35;14.25;;;20.70;86.60;;;;;;5113341;28;20030;-30
2023/09/12 04:17:24;;;;;;;16.80;13.65;;;20.60;86.50;;;;;;5113286;28;20023;-35
2023/09/12 04:19:50;;;;;;;19.35;14.70;;;20.60;86.50;;;;;;5113169;28;20034;-33
2023/09/12 04:22:15;;;;;;;17.70;14.02;;;20.60;86.50;;;;;;5113568;28;20377;-35
2023/09/12 04:24:41;;;;;;;17.20;14.07;;;20.60;86.60;;;;;;5112854;28;20351;-34
2023/09/12 04:27:07;;;;;;;19.50;14.85;;;20.60;86.60;;;;;;5112548;28;20036;-34
2023/09/12 04:29:35;;;;;;;15.82;13.50;;;20.70;86.60;;;;;;5094594;28;20057;-34
2023/09/12 04:32:05;;;;;;;21.75;13.48;;;20.70;86.60;;;;;;5112762;28;20023;-34
2023/09/12 04:34:31;;;;;;;19.13;14.40;;;20.70;86.60;;;;;;5112609;28;20035;-34
2023/09/12 04:36:56;;;;;;;16.92;14.15;;;20.80;86.70;;;;;;5112879;28;20028;-35
2023/09/12 04:39:22;;;;;;;18.65;14.55;;;20.80;86.70;;;;;;5112609;28;20023;-35
2023/09/12 04:41:48;;;;;;;23.23;16.00;;;20.80;86.70;;;;;;5112669;28;20629;-33
2023/09/12 04:44:14;;;;;;;29.83;17.23;;;20.80;86.70;;;;;;5112366;28;20027;-31
2023/09/12 04:46:39;;;;;;;33.25;17.75;;;20.80;86.70;;;;;;5094177;28;20161;-34
2023/09/12 04:49:05;;;;;;;27.60;17.60;;;20.90;86.80;;;;;;5112660;28;20097;-36
2023/09/12 04:51:30;;;;;;;37.35;16.95;;;20.90;86.80;;;;;;5112371;28;20024;-35
2023/09/12 04:53:56;;;;;;;38.35;18.63;;;20.90;86.90;;;;;;5112644;28;20023;-36
2023/09/12 04:56:24;;;;;;;25.70;17.08;;;20.90;86.90;;;;;;5112413;28;20110;-35
2023/09/12 04:58:50;;;;;;;23.38;17.00;;;20.90;87.00;;;;;;5112659;28;20028;-34
2023/09/12 05:01:16;;;;;;;23.38;16.40;;;20.90;87.00;;;;;;5112606;28;20468;-35
2023/09/12 05:03:42;;;;;;;22.05;16.83;;;20.90;87.00;;;;;;5112385;28;20394;-35
2023/09/12 05:06:08;;;;;;;24.42;17.70;;;21.00;87.00;;;;;;5112495;28;20020;-35
2023/09/12 05:08:33;;;;;;;25.02;18.38;;;21.00;87.00;;;;;;5112235;28;20024;-35
2023/09/12 05:10:59;;;;;;;26.58;19.23;;;21.00;87.00;;;;;;5112365;28;20026;-34
2023/09/12 05:13:24;;;;;;;28.60;20.35;;;21.00;87.00;;;;;;5112163;28;20023;-35
2023/09/12 05:15:50;;;;;;;33.53;22.70;;;21.00;87.10;;;;;;5112050;28;20541;-34
2023/09/12 05:18:16;;;;;;;33.08;21.40;;;21.00;87.10;;;;;;5112120;28;20370;-35
2023/09/12 05:20:41;;;;;;;30.75;21.95;;;21.00;87.10;;;;;;5112172;28;20024;-34
2023/09/12 05:23:07;;;;;;;29.60;21.15;;;21.00;87.10;;;;;;5112025;28;20024;-35
2023/09/12 05:25:32;;;;;;;30.15;21.40;;;21.10;87.20;;;;;;5112390;28;20167;-35
2023/09/12 05:27:58;;;;;;;33.28;23.10;;;21.10;87.20;;;;;;5111835;28;20040;-35
2023/09/12 05:30:23;;;;;;;31.45;21.90;;;21.10;87.60;;;;;;5112140;28;20060;-34
2023/09/12 05:32:49;;;;;;;32.67;21.95;;;21.10;87.30;;;;;;5093781;28;20473;-35
2023/09/12 05:35:15;;;;;;;28.20;21.42;;;21.00;87.30;;;;;;5111979;28;20027;-35
2023/09/12 05:37:40;;;;;;;31.60;22.13;;;21.10;87.40;;;;;;5112049;28;20110;-35
2023/09/12 05:40:06;;;;;;;31.02;21.70;;;21.10;87.30;;;;;;5112177;28;20379;-36
2023/09/12 05:42:32;;;;;;;29.98;22.48;;;21.10;87.30;;;;;;5111968;28;20055;-34
2023/09/12 05:44:57;;;;;;;30.33;22.88;;;21.10;87.30;;;;;;5112148;28;20059;-37
2023/09/12 05:47:23;;;;;;;30.90;22.52;;;21.10;87.30;;;;;;5111634;28;20102;-35
2023/09/12 05:49:50;;;;;;;30.13;21.75;;;21.10;87.40;;;;;;5111819;28;20020;-35
2023/09/12 05:52:16;;;;;;;32.90;23.02;;;21.10;87.40;;;;;;5111680;28;20020;-35
2023/09/12 05:54:42;;;;;;;34.38;22.98;;;21.10;87.50;;;;;;5111807;28;20042;-35
2023/09/12 05:57:09;;;;;;;32.83;22.38;;;21.10;87.50;;;;;;5111352;28;20035;-36
2023/09/12 05:59:36;;;;;;;31.67;22.23;;;21.10;87.50;;;;;;5093744;28;20477;-35
2023/09/12 06:02:02;;;;;;;31.10;23.38;;;21.10;87.60;;;;;;5111745;28;20015;-35
2023/09/12 06:04:27;;;;;;;35.13;24.20;;;21.10;87.50;;;;;;5111661;28;20385;-35
2023/09/12 06:06:53;;;;;;;31.20;23.13;;;21.10;87.40;;;;;;5111535;28;20024;-35
2023/09/12 06:09:19;;;;;;;34.45;24.13;;;21.10;87.40;;;;;;5111517;28;20016;-34
2023/09/12 06:11:44;;;;;;;33.47;22.83;;;21.10;87.40;;;;;;5111832;28;20034;-35
2023/09/12 06:14:10;;;;;;;33.95;23.02;;;21.10;87.40;;;;;;5111486;28;20385;-34
2023/09/12 06:16:35;;;;;;;33.35;23.25;;;21.10;87.40;;;;;;5111377;28;20389;-35
2023/09/12 06:19:01;;;;;;;33.13;22.95;;;21.20;87.40;;;;;;5111488;28;20051;-35
2023/09/12 06:21:26;;;;;;;33.70;23.27;;;21.20;87.40;;;;;;5111409;28;20016;-36
2023/09/12 06:24:15;;;;;;;33.65;23.45;;;21.20;87.40;;;;;;5111352;28;20203;-35
2023/09/12 06:26:41;;;;;;;33.25;23.23;;;21.20;87.30;;;;;;5094796;28;20066;-34
2023/09/12 06:29:07;;;;;;;33.10;23.98;;;21.30;87.30;;;;;;5115200;28;20023;-35
2023/09/12 06:31:33;;;;;;;29.05;22.00;;;21.30;87.20;;;;;;5115518;28;20024;-35
2023/09/12 06:33:59;;;;;;;33.63;22.65;;;21.20;87.30;;;;;;5096771;28;20441;-34
2023/09/12 06:36:26;;;;;;;33.53;23.73;;;21.30;87.30;;;;;;5114964;28;20051;-35
2023/09/12 06:38:52;;;;;;;35.10;23.98;;;21.30;87.20;;;;;;5115061;28;20364;-34
2023/09/12 06:41:21;;;;;;;35.13;23.80;;;21.30;87.20;;;;;;5114999;28;20094;-37
2023/09/12 06:43:46;;;;;;;31.55;22.27;;;21.30;87.10;;;;;;5115007;28;20023;-35
2023/09/12 06:46:12;;;;;;;35.45;24.00;;;21.30;87.10;;;;;;5114651;28;20522;-33
2023/09/12 06:48:38;;;;;;;35.08;24.13;;;21.30;87.70;;;;;;5114788;28;20023;-37
2023/09/12 06:51:06;;;;;;;35.97;23.27;;;21.30;87.20;;;;;;5114786;28;20027;-35
2023/09/12 06:53:31;;;;;;;31.65;22.30;;;21.30;87.20;;;;;;5114640;28;20034;-36
2023/09/12 06:55:58;;;;;;;32.40;23.10;;;21.30;87.20;;;;;;5114488;28;20024;-35
2023/09/12 06:58:24;;;;;;;32.35;22.83;;;21.30;87.10;;;;;;5114522;28;20027;-35
2023/09/12 07:00:50;;;;;;;29.98;22.15;;;21.30;86.90;;;;;;5114538;28;20583;-34
2023/09/12 07:03:16;;;;;;;33.13;21.85;;;21.40;87.00;;;;;;5114475;28;20050;-35
2023/09/12 07:05:43;;;;;;;30.27;21.67;;;21.40;86.80;;;;;;5114413;28;20026;-34
2023/09/12 07:08:08;;;;;;;31.58;21.77;;;21.40;86.90;;;;;;5114408;28;20041;-34
2023/09/12 07:10:35;;;;;;;29.63;21.75;;;21.40;86.80;;;;;;5114374;28;20028;-33
2023/09/12 07:13:01;;;;;;;33.80;23.48;;;21.50;86.70;;;;;;5114391;28;20041;-34
2023/09/12 07:15:27;;;;;;;33.60;23.63;;;21.50;86.60;;;;;;5114266;28;20137;-35
2023/09/12 07:17:52;;;;;;;30.75;21.83;;;21.50;86.60;;;;;;5095977;28;20476;-48
2023/09/12 07:20:19;;;;;;;28.08;21.73;;;21.60;86.60;;;;;;5114224;28;20030;-34
2023/09/12 07:22:46;;;;;;;32.05;22.85;;;21.50;86.40;;;;;;5114128;28;20028;-35
2023/09/12 07:25:13;;;;;;;29.73;21.88;;;21.60;86.40;;;;;;5114027;28;20028;-35
2023/09/12 07:27:38;;;;;;;30.42;20.83;;;21.60;86.40;;;;;;5113847;28;20050;-35
2023/09/12 07:30:07;;;;;;;31.13;21.63;;;21.70;86.30;;;;;;5114057;28;20043;-35
2023/09/12 07:32:32;;;;;;;29.20;21.63;;;21.80;86.10;;;;;;5114013;28;20100;-33
2023/09/12 07:34:58;;;;;;;28.90;21.17;;;21.80;86.00;;;;;;5113940;28;20024;-35
2023/09/12 07:37:24;;;;;;;28.75;21.30;;;21.80;85.90;;;;;;5112590;28;20027;-34
2023/09/12 07:39:49;;;;;;;28.15;20.77;;;21.80;85.90;;;;;;5113124;28;20484;-33
2023/09/12 07:42:15;;;;;;;28.85;20.90;;;21.90;85.90;;;;;;5112657;28;20103;-35
2023/09/12 07:44:40;;;;;;;28.67;19.60;;;21.80;85.80;;;;;;5112535;28;20039;-33
2023/09/12 07:47:07;;;;;;;27.20;19.98;;;21.90;85.90;;;;;;5112429;28;20400;-35
2023/09/12 07:49:32;;;;;;;28.52;20.48;;;22.00;85.80;;;;;;5113683;28;20476;-35
2023/09/12 07:51:58;;;;;;;28.33;20.65;;;22.00;85.60;;;;;;5113685;28;20030;-35
2023/09/12 07:54:24;;;;;;;26.30;20.00;;;22.00;85.50;;;;;;5113606;28;20035;-36
2023/09/12 07:56:49;;;;;;;28.13;20.25;;;22.00;85.30;;;;;;5113473;28;20076;-33
2023/09/12 07:59:15;;;;;;;23.13;18.27;;;22.10;85.30;;;;;;5113486;28;20039;-35
2023/09/12 08:01:41;;;;;;;24.95;19.50;;;22.10;85.30;;;;;;5113600;28;20031;-35
2023/09/12 08:04:06;;;;;;;28.30;19.88;;;22.10;85.10;;;;;;5113361;28;20039;-35
2023/09/12 08:06:32;;;;;;;25.05;19.60;;;22.20;85.00;;;;;;5113121;28;20032;-33
2023/09/12 08:08:58;;;;;;;24.90;18.95;;;22.20;84.90;;;;;;5113349;28;20393;-35
2023/09/12 08:11:24;;;;;;;25.23;19.02;;;22.20;84.90;;;;;;5113241;28;20030;-33
2023/09/12 08:13:50;;;;;;;25.00;18.73;;;22.20;84.90;;;;;;5113304;28;20019;-35
2023/09/12 08:16:16;;;;;;;26.15;20.20;;;22.20;84.90;;;;;;5113029;28;20020;-35
2023/09/12 08:18:42;;;;;;;28.27;20.00;;;22.20;84.80;;;;;;5112928;28;20046;-30
2023/09/12 08:21:07;;;;;;;24.23;20.20;;;22.10;84.80;;;;;;5112980;28;20034;-35
2023/09/12 08:23:33;;;;;;;25.73;19.08;;;22.20;84.80;;;;;;5112786;28;20035;-34
2023/09/12 08:25:59;;;;;;;27.13;19.02;;;22.20;84.60;;;;;;5112802;28;20456;-33
2023/09/12 08:28:25;;;;;;;26.05;19.35;;;22.20;84.40;;;;;;5112643;28;20412;-35
2023/09/12 08:30:51;;;;;;;29.85;20.35;;;22.20;84.40;;;;;;5112862;28;20023;-35
2023/09/12 08:33:16;;;;;;;25.13;18.95;;;22.10;84.30;;;;;;5113159;28;20464;-36
2023/09/12 08:35:43;;;;;;;23.83;17.65;;;22.10;84.30;;;;;;5112756;28;20173;-35
2023/09/12 08:38:08;;;;;;;23.90;18.45;;;22.10;84.30;;;;;;5112679;28;20102;-34
2023/09/12 08:40:35;;;;;;;24.63;18.67;;;22.20;84.20;;;;;;5112737;28;20437;-34
2023/09/12 08:43:03;;;;;;;21.65;17.08;;;22.30;84.10;;;;;;5112697;28;20100;-34
2023/09/12 08:45:29;;;;;;;21.17;15.50;;;22.40;84.00;;;;;;5112449;28;20168;-35
2023/09/12 08:47:58;;;;;;;20.42;16.13;;;22.40;83.70;;;;;;5112355;28;20111;-34
2023/09/12 08:50:24;;;;;;;21.42;16.83;;;22.40;83.30;;;;;;5111989;28;20032;-34
2023/09/12 08:52:50;;;;;;;21.90;15.85;;;22.40;83.10;;;;;;5112516;28;20076;-34
2023/09/12 08:55:16;;;;;;;19.35;15.27;;;22.40;83.10;;;;;;5112498;28;20030;-35
2023/09/12 08:57:43;;;;;;;19.92;15.35;;;22.40;83.00;;;;;;5112406;28;20558;-35
2023/09/12 09:00:14;;;;;;;20.10;15.40;;;22.50;83.00;;;;;;5112371;28;20089;-33
2023/09/12 09:02:40;;;;;;;20.90;15.95;;;22.60;82.80;;;;;;5112382;28;20031;-34
2023/09/12 09:05:08;;;;;;;20.98;15.38;;;22.60;82.50;;;;;;5112218;28;20020;-35
2023/09/12 09:07:39;;;;;;;17.85;13.77;;;22.70;82.40;;;;;;5112216;28;20020;-33
2023/09/12 09:10:07;;;;;;;18.13;13.32;;;22.70;82.30;;;;;;5112255;28;20442;-32
2023/09/12 09:12:33;;;;;;;16.15;12.57;;;22.70;82.20;;;;;;5112181;28;20476;-34
2023/09/12 09:15:19;;;;;;;15.45;12.63;;;22.80;82.10;;;;;;5112230;28;20060;-33
2023/09/12 09:17:45;;;;;;;17.75;13.55;;;22.80;82.00;;;;;;5112087;28;20038;-35
2023/09/12 09:20:22;;;;;;;15.48;11.93;;;22.90;81.60;;;;;;5111837;28;20027;-33
2023/09/12 09:23:04;;;;;;;16.65;12.10;;;22.90;81.40;;;;;;5112147;28;20034;-36
2023/09/12 09:25:31;;;;;;;14.43;11.13;;;22.90;81.20;;;;;;5111911;28;20042;-35
2023/09/12 09:27:56;;;;;;;15.70;11.80;;;22.90;81.10;;;;;;5111793;28;20047;-35
2023/09/12 09:30:50;;;;;;;14.95;11.43;;;22.90;81.10;;;;;;5112022;28;20391;-35
2023/09/12 09:33:16;;;;;;;15.02;11.52;;;23.00;81.00;;;;;;5109157;28;20554;-34
2023/09/12 09:35:43;;;;;;;16.73;13.38;;;23.00;81.60;;;;;;5111830;28;20031;-37
2023/09/12 09:38:09;;;;;;;15.52;11.43;;;23.10;80.90;;;;;;5112275;28;20114;-35
2023/09/12 09:40:36;;;;;;;12.40;10.10;;;23.10;80.70;;;;;;5110566;28;20031;-34
2023/09/12 09:43:03;;;;;;;13.68;11.23;;;23.20;80.40;;;;;;5111926;28;20028;-35
2023/09/12 09:45:29;;;;;;;11.05;9.55;;;23.20;80.00;;;;;;5111656;28;20028;-37
2023/09/12 09:48:04;;;;;;;12.82;10.05;;;23.30;79.70;;;;;;5112024;28;20039;-35
2023/09/12 09:50:29;;;;;;;13.85;10.18;;;23.30;79.00;;;;;;5112235;28;20027;-35
2023/09/12 09:52:57;;;;;;;11.98;10.18;;;23.30;79.00;;;;;;5111607;28;20020;-37
2023/09/12 09:55:23;;;;;;;13.63;10.63;;;23.40;78.90;;;;;;5111805;28;20024;-35
2023/09/12 09:57:51;;;;;;;14.70;10.38;;;23.40;79.50;;;;;;5111798;28;20382;-34
2023/09/12 10:00:18;;;;;;;14.73;11.90;;;23.40;78.80;;;;;;5112062;28;20028;-35
2023/09/12 10:02:46;;;;;;;14.70;11.77;;;23.40;78.70;;;;;;5114490;28;20032;-35
2023/09/12 10:05:14;;;;;;;13.93;10.75;;;23.40;78.70;;;;;;5115542;28;20401;-35
2023/09/12 10:07:42;;;;;;;13.25;10.95;;;23.50;78.50;;;;;;5116050;28;20019;-36
2023/09/12 10:10:08;;;;;;;15.45;11.25;;;23.50;78.40;;;;;;5115542;28;20077;-36
2023/09/12 10:12:48;;;;;;;14.18;10.95;;;23.60;78.10;;;;;;5115770;28;20027;-34
2023/09/12 10:15:15;;;;;;;12.35;10.48;;;23.70;78.60;;;;;;5115248;28;20084;-35
2023/09/12 10:17:46;;;;;;;12.70;10.38;;;23.80;78.00;;;;;;5115643;28;20061;-35
2023/09/12 10:20:19;;;;;;;12.95;9.73;;;23.90;77.50;;;;;;5097000;28;20085;-35
2023/09/12 10:23:19;;;;;;;9.23;8.25;;;23.90;77.20;;;;;;5115161;28;20059;-33
2023/09/12 10:25:45;;;;;;;8.82;7.47;;;24.00;77.00;;;;;;5110349;28;20123;-34
2023/09/12 10:28:12;;;;;;;10.50;8.05;;;24.10;77.00;;;;;;5115027;28;20400;-35
2023/09/12 10:30:39;;;;;;;10.15;8.38;;;24.20;76.70;;;;;;5115820;28;20034;-35
2023/09/12 10:33:06;;;;;;;9.45;8.15;;;24.30;76.40;;;;;;5115172;28;20024;-35
2023/09/12 10:35:33;;;;;;;10.43;8.15;;;24.30;76.20;;;;;;5114784;28;20129;-34
2023/09/12 10:38:03;;;;;;;9.82;8.05;;;24.30;76.20;;;;;;5114887;28;20028;-36
2023/09/12 10:40:30;;;;;;;10.25;8.38;;;24.30;76.00;;;;;;5115247;28;20039;-36
2023/09/12 10:42:57;;;;;;;10.32;8.55;;;24.20;75.90;;;;;;5114863;28;20110;-34
2023/09/12 10:45:22;;;;;;;8.48;7.35;;;24.20;75.70;;;;;;5114615;28;20038;-34
2023/09/12 10:47:48;;;;;;;9.10;7.78;;;24.20;75.80;;;;;;5114752;28;20481;-35
2023/09/12 10:50:14;;;;;;;9.65;7.47;;;24.20;75.70;;;;;;5115018;28;20468;-35
2023/09/12 10:52:41;;;;;;;9.32;7.68;;;24.20;75.50;;;;;;5114900;28;20023;-34
2023/09/12 10:55:07;;;;;;;9.75;6.88;;;24.30;75.30;;;;;;5114653;28;20099;-31
2023/09/12 10:57:34;;;;;;;8.27;6.45;;;24.40;75.10;;;;;;5114757;28;20040;-32
2023/09/12 10:59:59;;;;;;;8.32;6.90;;;24.50;74.80;;;;;;5114354;28;20036;-34
2023/09/12 11:02:36;;;;;;;8.35;6.75;;;24.70;74.40;;;;;;5114304;28;20107;-36
2023/09/12 11:05:24;;;;;;;8.20;6.18;;;24.90;73.80;;;;;;5114141;28;20027;-35
2023/09/12 11:07:50;;;;;;;6.15;5.55;;;25.10;73.50;;;;;;5114550;28;20042;-35
2023/09/12 11:10:18;;;;;;;6.20;5.00;;;25.30;73.20;;;;;;5114249;28;20027;-33
2023/09/12 11:12:45;;;;;;;6.63;5.60;;;25.40;72.80;;;;;;5113743;28;20073;-35
2023/09/12 11:15:11;;;;;;;6.07;5.47;;;25.40;72.30;;;;;;5114064;28;20032;-34
2023/09/12 11:17:48;;;;;;;7.63;5.88;;;25.40;72.20;;;;;;5114132;28;20052;-36
2023/09/12 11:20:15;;;;;;;6.07;5.18;;;25.40;71.80;;;;;;5114131;28;20026;-34
2023/09/12 11:22:43;;;;;;;8.48;4.65;;;25.40;71.70;;;;;;5114300;28;20545;-36
2023/09/12 11:25:28;;;;;;;8.95;4.97;;;25.40;71.40;;;;;;5113954;28;20019;-36
2023/09/12 11:27:53;;;;;;;6.90;4.95;;;25.50;70.90;;;;;;5095514;28;20135;-36
2023/09/12 11:30:24;;;;;;;6.40;4.80;;;25.50;70.70;;;;;;5113755;28;20094;-36
2023/09/12 11:32:51;;;;;;;6.63;5.45;;;25.60;70.10;;;;;;5114149;28;20034;-37
2023/09/12 11:35:22;;;;;;;6.25;5.00;;;25.60;69.90;;;;;;5113639;28;20020;-36
2023/09/12 11:37:49;;;;;;;5.85;4.63;;;25.60;69.90;;;;;;5113779;28;20533;-35
2023/09/12 11:40:22;;;;;;;8.35;4.75;;;25.60;69.90;;;;;;5095724;28;20023;-35
2023/09/12 11:42:49;;;;;;;5.43;4.45;;;25.60;69.70;;;;;;5113690;28;20027;-35
2023/09/12 11:45:18;;;;;;;5.30;3.65;;;25.70;69.40;;;;;;5113527;28;20034;-34
2023/09/12 11:47:45;;;;;;;4.93;4.25;;;25.70;68.80;;;;;;5113593;28;20035;-35
2023/09/12 11:50:26;;;;;;;5.45;3.72;;;25.80;68.60;;;;;;5113745;28;20370;-35
2023/09/12 11:53:09;;;;;;;9.80;5.13;;;25.90;68.50;;;;;;5113372;28;20114;-34
2023/09/12 11:55:43;;;;;;;5.05;4.55;;;26.00;68.30;;;;;;5113355;28;20252;-35
2023/09/12 11:58:11;;;;;;;5.60;4.53;;;26.20;68.20;;;;;;5113073;28;20043;-35
2023/09/12 12:00:37;;;;;;;5.07;3.92;;;26.30;68.10;;;;;;5113402;28;20401;-35
2023/09/12 12:03:04;;;;;;;6.40;5.10;;;26.40;68.00;;;;;;5113103;28;20023;-35
2023/09/12 12:05:29;;;;;;;5.60;4.50;;;26.60;68.30;;;;;;5113323;28;20034;-36
2023/09/12 12:07:55;;;;;;;5.60;4.00;;;26.70;67.40;;;;;;5112927;28;20397;-35
2023/09/12 12:10:23;;;;;;;5.30;3.53;;;26.80;67.20;;;;;;5094784;28;20031;-33
2023/09/12 12:12:52;;;;;;;4.45;3.33;;;26.90;66.80;;;;;;5113057;28;20038;-37
2023/09/12 12:15:18;;;;;;;3.30;2.90;;;26.90;66.40;;;;;;5112930;28;20437;-36
2023/09/12 12:17:44;;;;;;;6.25;3.70;;;26.90;66.10;;;;;;5112890;28;20028;-35
2023/09/12 12:20:11;;;;;;;5.75;3.72;;;27.00;65.50;;;;;;5113175;28;20031;-35
2023/09/12 12:22:40;;;;;;;4.63;3.33;;;27.00;65.20;;;;;;5113108;28;20540;-34
2023/09/12 12:25:10;;;;;;;6.63;3.97;;;26.90;65.40;;;;;;5111987;28;20038;-35
2023/09/12 12:27:39;;;;;;;5.97;4.38;;;26.90;65.50;;;;;;5112708;28;20128;-34
2023/09/12 12:30:08;;;;;;;4.93;4.10;;;26.90;65.40;;;;;;5112673;28;20028;-35